Airfield :
LOGIN :

Register | Disclaimer

   EN    FR    IT 

 










Legend :    VFR   Marginal VFR   IFR   Intensive IFR   Very Intensive IFR
Visi :
Ceiling :
>= 8 km
>= 3000ft
5 to 8 km
1000 to 3000 ft
1500m to 5 km
500 to 1000 ft
800 to 1500m
200 to 500 ft
< 800m
< 200 ft
Symbols :   Thunderstorms  Fog  Heavy snow  Heavy precipitations  Wind > 20 kt
SIGMETs :     Misc.  Thunderstorms  Icing  Turbulence  Mountain Waves  Volcanic Ashes






- Airport Elevation : 141 ft
- IATA code : SKS


EKSP - Srydstrup Vojens

CURRENT METAR :
  • 282250Z 18007KT 9999 FEW017 SCT046 08/07 Q1001

EXPIRED METARs :
  • 282220Z 18010KT 9999 FEW017 SCT029 09/07 Q1002
  • 282150Z 18009KT 9999 FEW017 SCT029 08/07 Q1001
  • 282120Z 18009KT 9999 FEW017 BKN029 08/07 Q1002
  • 282050Z 19009KT 9999 BKN029 09/07 Q1002
  • 282020Z 18009KT 9999 SCT029 09/07 Q1002

TAF TAF EKSP
Valid from the 28 at 21:00 until the 29 at 21:00 UTC


282022Z 2821/2921 19008KT 9999 SCT030
TEMPO 2821/2910 3000 SHRA BR BKN008 BKN020CB
BECMG 2904/2907 27012KT
TEMPO 2910/2918 -SHRA FEW020TCU
BECMG 2919/2921 20008KT



MET'MAP, your aeronautical weather chart ! - Copyright ORBIFLY December 2007 - Disclaimer

ORBIFLY MET'MAP TEAM :

Programming & Development : Alexandra Zaïnal
Concept & original design : Baudouin d'Aumeries
Assistance for programming : Marc-Olivier Méhu
Technical & hardware support : Manuel Goepfert

Contact : metmap@orbifly.com




SOURCES & CREDITS :

   NOAA